Time;durP1;ratioP1;P1;durP2;ratioP2;P2;SDS_P1;SDS_P2;PMS_P1;PMS_P2;Temp;Humidity;BMP_temperature;BMP_pressure;BME280_temperature;BME280_humidity;BME280_pressure;Samples;Min_cycle;Max_cycle;Signal;HPM_P1;HPM_P2
2020/12/11 00:01:43;;;;;;;29.55;12.75;;;2.50;99.90;;;;;;5094321;27;20039;-79
2020/12/11 00:04:09;;;;;;;31.60;13.45;;;2.50;99.90;;;;;;5097396;28;20035;-79
2020/12/11 00:06:35;;;;;;;26.67;12.65;;;2.60;99.90;;;;;;5113757;28;20058;-79
2020/12/11 00:09:01;;;;;;;27.92;11.98;;;2.60;99.90;;;;;;5114610;28;20042;-79
2020/12/11 00:11:28;;;;;;;26.77;12.70;;;2.50;99.90;;;;;;5113661;28;20043;-79
2020/12/11 00:13:54;;;;;;;26.20;11.80;;;2.40;99.90;;;;;;5114853;28;20104;-79
2020/12/11 00:16:19;;;;;;;25.27;11.50;;;2.30;99.90;;;;;;5112813;28;20039;-79
2020/12/11 00:18:45;;;;;;;26.05;11.40;;;;;;;;;;5111116;28;20389;-79
2020/12/11 00:21:11;;;;;;;25.95;11.45;;;;;;;;;;5094324;28;20118;-79
2020/12/11 00:23:38;;;;;;;23.85;11.90;;;2.20;99.90;;;;;;5093271;28;20076;-79
2020/12/11 00:26:03;;;;;;;29.70;13.43;;;2.10;99.90;;;;;;5094696;28;20055;-79
2020/12/11 00:28:30;;;;;;;26.25;12.73;;;2.10;99.90;;;;;;5093026;28;20044;-79
2020/12/11 00:30:56;;;;;;;32.72;12.68;;;;;;;;;;5107199;28;20031;-79
2020/12/11 00:33:23;;;;;;;27.65;11.93;;;1.90;99.90;;;;;;5098864;28;20040;-79
2020/12/11 00:35:49;;;;;;;29.73;13.07;;;1.90;99.90;;;;;;5104136;28;20106;-81
2020/12/11 00:38:15;;;;;;;26.65;12.93;;;2.10;99.90;;;;;;5119037;28;20078;-79
2020/12/11 00:40:41;;;;;;;27.90;13.00;;;2.20;99.90;;;;;;5113927;28;20075;-79
2020/12/11 00:43:07;;;;;;;31.25;14.30;;;2.20;99.90;;;;;;5113175;28;20043;-79
2020/12/11 00:45:33;;;;;;;30.63;13.15;;;2.20;99.90;;;;;;5112908;28;20049;-79
2020/12/11 00:47:59;;;;;;;28.20;12.82;;;2.00;99.90;;;;;;5113107;28;20089;-78
2020/12/11 00:50:24;;;;;;;28.75;12.43;;;2.00;99.90;;;;;;5113846;28;20039;-79
2020/12/11 00:52:50;;;;;;;29.95;12.80;;;2.10;99.90;;;;;;5115800;28;20498;-80
2020/12/11 00:55:16;;;;;;;28.15;13.23;;;2.20;99.90;;;;;;5115935;28;20097;-79
2020/12/11 00:57:43;;;;;;;28.77;13.48;;;2.20;99.90;;;;;;5117830;28;20099;-80
2020/12/11 01:00:12;;;;;;;30.73;13.98;;;2.10;99.90;;;;;;5114313;28;20127;-79
2020/12/11 01:02:38;;;;;;;28.85;12.77;;;;;;;;;;5114285;28;20067;-79
2020/12/11 01:05:04;;;;;;;28.95;13.57;;;2.10;99.90;;;;;;5114349;27;20047;-79
2020/12/11 01:07:29;;;;;;;32.78;13.35;;;2.10;99.90;;;;;;5114144;28;20047;-78
2020/12/11 01:09:55;;;;;;;30.30;14.10;;;2.00;99.90;;;;;;5112329;28;20130;-79
2020/12/11 01:12:20;;;;;;;30.90;13.45;;;1.90;99.90;;;;;;5112709;28;20088;-79
2020/12/11 01:14:47;;;;;;;31.55;13.88;;;1.90;99.90;;;;;;5113976;28;20477;-79
2020/12/11 01:17:12;;;;;;;30.40;12.68;;;2.00;99.90;;;;;;5114111;28;20050;-79
2020/12/11 01:19:38;;;;;;;30.75;13.48;;;;;;;;;;5113412;28;20477;-79
2020/12/11 01:22:04;;;;;;;34.47;14.75;;;2.10;99.90;;;;;;5114004;28;20044;-79
2020/12/11 01:24:30;;;;;;;27.48;13.27;;;2.20;99.90;;;;;;5112952;28;20039;-78
2020/12/11 01:26:55;;;;;;;29.50;13.38;;;2.10;99.90;;;;;;5112637;28;20036;-79
2020/12/11 01:29:21;;;;;;;27.80;12.82;;;2.10;99.90;;;;;;5113333;28;20044;-79
2020/12/11 01:31:48;;;;;;;31.63;13.65;;;;;;;;;;5112566;28;20043;-79
2020/12/11 01:34:13;;;;;;;30.98;13.20;;;2.10;99.90;;;;;;5114009;28;20044;-79
2020/12/11 01:36:39;;;;;;;31.27;15.25;;;;;;;;;;5114148;28;20078;-79
2020/12/11 01:39:07;;;;;;;33.03;14.95;;;2.10;99.90;;;;;;5112734;28;20036;-79
2020/12/11 01:41:32;;;;;;;29.73;13.20;;;2.00;99.90;;;;;;5113988;28;20372;-79
2020/12/11 01:44:04;;;;;;;29.67;14.13;;;2.20;99.90;;;;;;5113746;28;20123;-79
2020/12/11 01:46:35;;;;;;;30.13;13.55;;;2.20;99.90;;;;;;5113550;28;20057;-79
2020/12/11 01:49:02;;;;;;;29.67;13.35;;;2.20;99.90;;;;;;5111687;28;20043;-79
2020/12/11 01:51:28;;;;;;;31.17;13.18;;;2.20;99.90;;;;;;5113978;28;20112;-79
2020/12/11 01:53:55;;;;;;;31.80;13.77;;;2.30;99.90;;;;;;5112314;28;20039;-79
2020/12/11 01:56:25;;;;;;;29.15;12.65;;;2.30;99.90;;;;;;5112633;28;20461;-79
2020/12/11 01:58:58;;;;;;;30.77;12.60;;;2.30;99.90;;;;;;5112585;28;20063;-79
2020/12/11 02:01:23;;;;;;;31.58;12.88;;;2.30;99.90;;;;;;5113757;28;20039;-79
2020/12/11 02:03:49;;;;;;;30.65;13.93;;;;;;;;;;5114058;28;20107;-79
2020/12/11 02:06:16;;;;;;;28.95;13.30;;;2.40;99.90;;;;;;5113348;28;20453;-79
2020/12/11 02:08:41;;;;;;;31.00;13.13;;;2.50;99.90;;;;;;5113047;28;20378;-79
2020/12/11 02:11:17;;;;;;;31.67;13.88;;;2.50;99.90;;;;;;5113854;28;20051;-79
2020/12/11 02:13:43;;;;;;;31.95;13.95;;;;;;;;;;5115548;28;20050;-79
2020/12/11 02:16:08;;;;;;;30.05;13.80;;;2.50;99.90;;;;;;5115998;28;20058;-79
2020/12/11 02:18:35;;;;;;;29.15;13.32;;;2.50;99.90;;;;;;5115789;28;20472;-79
2020/12/11 02:21:01;;;;;;;29.88;13.40;;;2.40;99.90;;;;;;5115915;28;20048;-79
2020/12/11 02:23:27;;;;;;;37.33;14.55;;;;;;;;;;5115786;28;20386;-79
2020/12/11 02:25:53;;;;;;;29.27;13.32;;;;;;;;;;5117321;28;20043;-79
2020/12/11 02:28:19;;;;;;;29.55;13.43;;;2.20;99.90;;;;;;5115675;28;20504;-79
2020/12/11 02:30:45;;;;;;;33.50;15.40;;;2.20;99.90;;;;;;5116333;28;20035;-79
2020/12/11 02:33:10;;;;;;;28.70;12.43;;;2.10;99.90;;;;;;5115451;28;20035;-79
2020/12/11 02:35:39;;;;;;;29.58;13.80;;;2.10;99.90;;;;;;5116922;28;20393;-79
2020/12/11 02:38:05;;;;;;;33.28;15.40;;;2.10;99.90;;;;;;5116581;28;20097;-82
2020/12/11 02:40:36;;;;;;;29.63;12.80;;;2.10;99.90;;;;;;5114844;28;20140;-79
2020/12/11 02:43:01;;;;;;;33.40;14.65;;;2.10;99.90;;;;;;5116741;28;20063;-79
2020/12/11 02:45:27;;;;;;;29.17;13.15;;;2.10;99.90;;;;;;5115372;28;20477;-79
2020/12/11 02:47:53;;;;;;;33.03;14.25;;;2.10;99.90;;;;;;5116672;27;20036;-79
2020/12/11 02:50:18;;;;;;;31.65;14.48;;;2.20;99.90;;;;;;5115987;28;20365;-79
2020/12/11 02:52:44;;;;;;;35.38;14.20;;;2.20;99.90;;;;;;5115268;28;20035;-79
2020/12/11 02:55:09;;;;;;;30.38;13.23;;;2.20;99.90;;;;;;5115214;28;20546;-79
2020/12/11 02:57:36;;;;;;;35.55;15.10;;;2.20;99.90;;;;;;5115194;28;20070;-79
2020/12/11 03:00:03;;;;;;;29.38;13.32;;;2.20;99.90;;;;;;5116238;28;20067;-79
2020/12/11 03:02:29;;;;;;;33.65;14.13;;;2.20;99.90;;;;;;5116298;28;20485;-80
2020/12/11 03:04:54;;;;;;;27.45;12.52;;;2.10;99.90;;;;;;5114923;28;20039;-79
2020/12/11 03:07:20;;;;;;;28.98;14.05;;;2.20;99.90;;;;;;5116280;28;20521;-79
2020/12/11 03:09:45;;;;;;;31.15;14.07;;;2.00;99.90;;;;;;5114410;28;20081;-79
2020/12/11 03:12:11;;;;;;;32.22;13.80;;;2.10;99.90;;;;;;5116144;28;20405;-79
2020/12/11 03:14:37;;;;;;;29.67;13.45;;;2.10;99.90;;;;;;5114741;28;20067;-79
2020/12/11 03:17:03;;;;;;;33.65;15.43;;;2.10;99.90;;;;;;5116159;28;20062;-78
2020/12/11 03:19:29;;;;;;;31.63;14.20;;;2.20;99.90;;;;;;5114181;28;20481;-79
2020/12/11 03:21:54;;;;;;;36.75;14.77;;;2.20;99.90;;;;;;5116073;28;20035;-79
2020/12/11 03:24:20;;;;;;;27.02;13.30;;;2.20;99.90;;;;;;5115563;28;20046;-79
2020/12/11 03:26:46;;;;;;;34.40;14.82;;;2.20;99.90;;;;;;5115889;28;20097;-79
2020/12/11 03:29:11;;;;;;;29.40;13.70;;;2.00;99.90;;;;;;5114153;28;20046;-79
2020/12/11 03:31:38;;;;;;;32.53;14.43;;;2.00;99.90;;;;;;5114317;28;20122;-79
2020/12/11 03:34:04;;;;;;;31.63;13.82;;;;;;;;;;5115895;28;20040;-79
2020/12/11 03:36:29;;;;;;;32.30;14.63;;;1.90;99.90;;;;;;5115749;28;20370;-79
2020/12/11 03:38:55;;;;;;;34.90;14.40;;;1.60;99.90;;;;;;5113291;28;20032;-79
2020/12/11 03:41:20;;;;;;;34.78;15.18;;;1.80;99.90;;;;;;5115549;28;20040;-79
2020/12/11 03:43:46;;;;;;;9.00;4.43;;;1.80;99.90;;;;;;5114318;28;20039;-79
2020/12/11 03:46:19;;;;;;;35.15;14.02;;;1.70;99.90;;;;;;5115540;28;20087;-79
2020/12/11 03:48:46;;;;;;;36.20;15.35;;;;;;;;;;5113770;28;20036;-79
2020/12/11 03:51:15;;;;;;;32.97;14.15;;;1.80;99.90;;;;;;5113953;28;20116;-79
2020/12/11 03:53:41;;;;;;;39.73;15.77;;;1.70;99.90;;;;;;5114546;28;20081;-79
2020/12/11 03:56:06;;;;;;;29.92;13.98;;;1.60;99.90;;;;;;5114060;28;20114;-79
2020/12/11 03:58:32;;;;;;;31.70;14.23;;;1.80;99.90;;;;;;5115155;27;20126;-79
2020/12/11 04:00:58;;;;;;;36.55;14.93;;;;;;;;;;5113442;28;20370;-79
2020/12/11 04:03:23;;;;;;;26.15;13.07;;;1.70;99.90;;;;;;5113961;28;20046;-79
2020/12/11 04:05:50;;;;;;;26.85;12.52;;;1.70;99.90;;;;;;5115578;28;20085;-79
2020/12/11 04:08:15;;;;;;;28.60;12.80;;;1.70;99.90;;;;;;5115117;28;20036;-79
2020/12/11 04:10:41;;;;;;;28.20;12.45;;;1.80;99.90;;;;;;5113672;28;20027;-78
2020/12/11 04:13:06;;;;;;;29.92;11.95;;;1.80;99.90;;;;;;5115349;28;20476;-79
2020/12/11 04:15:32;;;;;;;16.48;8.50;;;1.70;99.90;;;;;;5113741;28;20138;-79
2020/12/11 04:17:58;;;;;;;29.98;14.60;;;1.70;99.90;;;;;;5113297;28;20104;-78
2020/12/11 04:20:23;;;;;;;29.77;12.80;;;1.70;99.90;;;;;;5113319;28;20067;-79
2020/12/11 04:22:50;;;;;;;18.85;9.07;;;1.70;99.90;;;;;;5115135;28;20057;-78
2020/12/11 04:25:15;;;;;;;21.40;8.32;;;1.60;99.90;;;;;;5113644;28;20118;-78
2020/12/11 04:27:41;;;;;;;28.15;12.77;;;1.70;99.90;;;;;;5114784;28;20126;-78
2020/12/11 04:30:07;;;;;;;28.00;13.57;;;;;;;;;;5112708;28;20028;-79
2020/12/11 04:32:32;;;;;;;12.52;6.65;;;1.60;99.90;;;;;;5115027;27;20066;-78
2020/12/11 04:34:58;;;;;;;12.38;5.13;;;1.70;99.90;;;;;;5112773;28;20032;-79
2020/12/11 04:37:23;;;;;;;22.08;8.75;;;1.80;99.90;;;;;;5113369;28;20545;-78
2020/12/11 04:39:50;;;;;;;19.93;8.83;;;1.70;99.90;;;;;;5113126;28;20070;-78
2020/12/11 04:42:17;;;;;;;27.17;13.27;;;1.80;99.90;;;;;;5114621;28;20040;-79
2020/12/11 04:44:43;;;;;;;25.25;11.18;;;1.60;99.90;;;;;;5114263;28;20092;-78
2020/12/11 04:47:10;;;;;;;25.55;11.55;;;1.60;99.90;;;;;;5114417;28;20039;-79
2020/12/11 04:49:36;;;;;;;26.90;13.38;;;1.60;99.90;;;;;;5113732;28;20047;-78
2020/12/11 04:52:05;;;;;;;19.27;8.93;;;1.60;99.90;;;;;;5113114;28;20036;-78
2020/12/11 04:54:36;;;;;;;28.08;13.05;;;1.60;99.90;;;;;;5114367;28;20430;-78
2020/12/11 04:57:07;;;;;;;13.45;7.40;;;1.70;99.90;;;;;;5113199;28;20489;-78
2020/12/11 04:59:33;;;;;;;21.77;11.63;;;1.70;99.90;;;;;;5112366;28;20032;-79
2020/12/11 05:02:06;;;;;;;27.42;12.63;;;1.70;99.90;;;;;;5112820;28;20042;-78
2020/12/11 05:04:33;;;;;;;11.55;5.65;;;;;;;;;;5112751;28;20101;-78
2020/12/11 05:06:58;;;;;;;23.23;11.05;;;1.70;99.90;;;;;;5114110;28;20061;-78
2020/12/11 05:09:24;;;;;;;20.90;11.57;;;1.70;99.90;;;;;;5113561;28;20036;-78
2020/12/11 05:11:49;;;;;;;19.15;10.20;;;1.70;99.90;;;;;;5114125;28;20490;-78
2020/12/11 05:14:23;;;;;;;8.43;4.43;;;1.80;99.90;;;;;;5114070;28;20396;-78
2020/12/11 05:17:00;;;;;;;14.55;6.57;;;1.80;99.90;;;;;;5113881;28;20063;-78
2020/12/11 05:19:26;;;;;;;26.13;7.78;;;;;;;;;;5113458;28;20439;-78
2020/12/11 05:21:53;;;;;;;14.43;8.02;;;1.90;99.90;;;;;;5113815;28;20035;-78
2020/12/11 05:24:18;;;;;;;21.73;9.02;;;1.90;99.90;;;;;;5114134;28;20052;-78
2020/12/11 05:26:44;;;;;;;10.57;5.28;;;1.90;99.90;;;;;;5112719;28;20104;-79
2020/12/11 05:29:10;;;;;;;14.38;6.95;;;;;;;;;;5112253;28;20040;-79
2020/12/11 05:31:37;;;;;;;22.83;10.75;;;1.80;99.90;;;;;;5112745;28;20143;-78
2020/12/11 05:34:10;;;;;;;20.90;11.60;;;1.90;99.90;;;;;;5113813;28;20516;-79
2020/12/11 05:36:47;;;;;;;15.20;7.18;;;1.90;99.90;;;;;;5112500;28;20042;-79
2020/12/11 05:39:16;;;;;;;18.45;8.90;;;1.90;99.90;;;;;;5112365;28;20119;-79
2020/12/11 05:41:41;;;;;;;22.10;11.63;;;1.90;99.90;;;;;;5114132;28;20143;-79
2020/12/11 05:44:23;;;;;;;15.88;8.07;;;1.90;99.90;;;;;;5113686;28;20044;-78
2020/12/11 05:46:50;;;;;;;6.15;3.65;;;1.90;99.90;;;;;;5115572;28;20043;-78
2020/12/11 05:49:27;;;;;;;18.65;9.23;;;2.00;99.90;;;;;;5115822;28;20043;-78
2020/12/11 05:51:56;;;;;;;23.63;10.55;;;2.00;99.90;;;;;;5117825;28;20503;-78
2020/12/11 05:54:23;;;;;;;12.05;6.00;;;1.90;99.90;;;;;;5116515;28;20046;-78
2020/12/11 05:56:50;;;;;;;10.35;5.55;;;1.90;99.90;;;;;;5116458;28;20040;-78
2020/12/11 05:59:20;;;;;;;21.92;9.45;;;1.90;99.90;;;;;;5116002;28;20096;-78
2020/12/11 06:01:47;;;;;;;22.23;9.50;;;1.90;99.90;;;;;;5117432;28;20043;-79
2020/12/11 06:04:15;;;;;;;24.45;11.43;;;2.00;99.90;;;;;;5116335;28;20492;-79
2020/12/11 06:06:44;;;;;;;21.58;10.98;;;2.00;99.90;;;;;;5116554;28;20485;-79
2020/12/11 06:09:12;;;;;;;25.90;12.32;;;2.00;99.90;;;;;;5115592;28;20050;-79
2020/12/11 06:11:46;;;;;;;14.07;6.88;;;2.00;99.90;;;;;;5117431;28;20435;-78
2020/12/11 06:14:23;;;;;;;27.08;12.80;;;2.00;99.90;;;;;;5116164;28;20126;-79
2020/12/11 06:16:52;;;;;;;11.45;5.22;;;2.10;99.90;;;;;;5115866;28;20035;-79
2020/12/11 06:19:19;;;;;;;19.77;9.68;;;;;;;;;;5101901;28;20032;-78
2020/12/11 06:21:45;;;;;;;8.70;4.25;;;2.10;99.90;;;;;;5096821;28;20055;-78
2020/12/11 06:24:26;;;;;;;20.10;10.82;;;2.10;99.90;;;;;;5097147;28;20036;-78
2020/12/11 06:26:55;;;;;;;19.40;10.05;;;;;;;;;;5095478;28;20520;-79
2020/12/11 06:29:26;;;;;;;15.93;8.55;;;2.10;99.90;;;;;;5096311;28;20040;-79
2020/12/11 06:31:51;;;;;;;10.68;5.38;;;2.10;99.90;;;;;;5096610;28;20105;-78
2020/12/11 06:34:21;;;;;;;11.15;5.75;;;2.10;99.90;;;;;;5096814;28;20040;-79
2020/12/11 06:36:47;;;;;;;21.48;10.52;;;;;;;;;;5096509;28;20044;-79
2020/12/11 06:39:40;;;;;;;19.33;9.40;;;2.10;99.90;;;;;;5096133;28;20040;-79
2020/12/11 06:42:06;;;;;;;20.20;11.00;;;2.10;99.90;;;;;;5095157;28;20038;-79
2020/12/11 06:44:32;;;;;;;23.33;10.27;;;2.10;99.90;;;;;;5096366;28;20050;-79
2020/12/11 06:47:06;;;;;;;18.17;10.48;;;2.20;99.90;;;;;;5111201;28;20046;-79
2020/12/11 06:49:33;;;;;;;17.92;9.43;;;2.10;99.90;;;;;;5116438;28;20443;-79
2020/12/11 06:52:12;;;;;;;20.83;10.48;;;2.20;99.90;;;;;;5117004;28;20043;-78
2020/12/11 06:54:54;;;;;;;18.38;8.20;;;2.20;99.90;;;;;;5116609;28;20059;-79
2020/12/11 06:57:40;;;;;;;24.42;11.20;;;2.20;99.90;;;;;;5115768;28;20542;-78
2020/12/11 07:00:23;;;;;;;9.60;5.13;;;2.30;99.90;;;;;;5116040;28;20570;-78
2020/12/11 07:03:12;;;;;;;10.65;4.65;;;2.20;99.90;;;;;;5116518;28;20470;-79
2020/12/11 07:05:39;;;;;;;14.75;6.53;;;2.30;99.90;;;;;;5116553;27;20118;-78
2020/12/11 07:08:10;;;;;;;9.80;4.68;;;2.30;99.90;;;;;;5115238;28;20043;-77
2020/12/11 07:10:36;;;;;;;7.30;4.90;;;;;;;;;;5116200;28;20042;-77
2020/12/11 07:13:05;;;;;;;19.83;10.38;;;2.30;99.90;;;;;;5116168;28;20036;-76
2020/12/11 07:15:31;;;;;;;8.65;4.40;;;2.20;99.90;;;;;;5116218;28;20043;-77
2020/12/11 07:17:56;;;;;;;16.13;7.60;;;2.30;99.90;;;;;;5114693;28;20034;-76
2020/12/11 07:20:22;;;;;;;17.52;6.75;;;2.30;99.90;;;;;;5115678;28;20036;-76
2020/12/11 07:22:50;;;;;;;7.38;3.45;;;;;;;;;;5116077;28;20063;-77
2020/12/11 07:25:16;;;;;;;12.13;4.38;;;2.30;99.90;;;;;;5116223;28;20047;-79
2020/12/11 07:27:55;;;;;;;8.75;4.60;;;2.30;99.90;;;;;;5114944;28;20036;-78
2020/12/11 07:30:20;;;;;;;10.82;5.57;;;2.30;99.90;;;;;;5114166;28;20036;-78
2020/12/11 07:32:51;;;;;;;10.25;4.68;;;2.40;99.90;;;;;;5116013;28;20054;-79
2020/12/11 07:35:16;;;;;;;;;;;2.30;99.90;;;;;;5116683;28;20044;-79
2020/12/11 07:37:49;;;;;;;7.28;2.78;;;2.30;99.90;;;;;;5115935;28;20003;-77
2020/12/11 07:40:16;;;;;;;12.82;6.25;;;2.30;99.90;;;;;;5115439;28;20036;-79
2020/12/11 07:42:42;;;;;;;13.35;6.18;;;;;;;;;;5115726;28;20508;-79
2020/12/11 07:45:08;;;;;;;20.48;6.43;;;2.30;99.90;;;;;;5115682;28;20473;-76
2020/12/11 07:47:34;;;;;;;12.90;4.57;;;2.40;99.90;;;;;;5115329;28;20042;-77
2020/12/11 07:50:05;;;;;;;13.27;6.00;;;2.40;99.90;;;;;;5114690;28;20050;-77
2020/12/11 07:52:32;;;;;;;8.13;4.32;;;2.40;99.90;;;;;;5114345;28;20487;-77
2020/12/11 07:54:58;;;;;;;10.45;4.60;;;2.40;99.90;;;;;;5114096;28;20040;-77
2020/12/11 07:57:25;;;;;;;9.07;5.35;;;2.40;99.90;;;;;;5115353;28;20120;-78
2020/12/11 07:59:56;;;;;;;17.27;9.70;;;2.40;99.90;;;;;;5113865;28;20047;-77
2020/12/11 08:02:22;;;;;;;3.20;2.22;;;2.40;99.90;;;;;;5113844;28;20047;-77
2020/12/11 08:05:04;;;;;;;7.05;4.32;;;2.40;99.90;;;;;;5118404;28;20568;-78
2020/12/11 08:07:32;;;;;;;11.07;5.40;;;2.40;99.90;;;;;;5126544;28;20043;-77
2020/12/11 08:10:08;;;;;;;9.57;3.67;;;2.50;99.90;;;;;;5112554;28;20066;-78
2020/12/11 08:12:33;;;;;;;12.18;6.72;;;2.50;99.90;;;;;;5113807;28;20052;-77
2020/12/11 08:14:59;;;;;;;13.88;6.63;;;2.50;99.90;;;;;;5114987;28;20119;-77
2020/12/11 08:17:26;;;;;;;12.00;6.05;;;2.50;99.90;;;;;;5113565;28;20043;-77
2020/12/11 08:19:58;;;;;;;12.88;6.43;;;2.60;99.90;;;;;;5113440;28;20116;-78
2020/12/11 08:22:30;;;;;;;7.75;3.38;;;2.60;99.90;;;;;;5115027;28;20593;-77
2020/12/11 08:24:56;;;;;;;9.88;4.40;;;2.60;99.90;;;;;;5113577;28;20039;-78
2020/12/11 08:27:24;;;;;;;11.38;5.65;;;2.60;99.90;;;;;;5113624;28;20549;-77
2020/12/11 08:30:07;;;;;;;15.27;7.53;;;2.60;99.90;;;;;;5112801;28;20047;-77
2020/12/11 08:32:33;;;;;;;9.73;6.10;;;2.60;99.90;;;;;;5113849;28;20043;-77
2020/12/11 08:34:59;;;;;;;8.63;4.53;;;2.60;99.90;;;;;;5114626;28;20039;-77
2020/12/11 08:37:24;;;;;;;9.20;4.28;;;2.60;99.90;;;;;;5113496;28;20036;-77
2020/12/11 08:40:02;;;;;;;10.18;4.72;;;2.70;99.90;;;;;;5112697;28;20027;-77
2020/12/11 08:42:32;;;;;;;12.23;6.45;;;2.70;99.90;;;;;;5113179;28;20040;-77
2020/12/11 08:50:27;;;;;;;10.05;5.72;;;2.70;99.90;;;;;;5113629;28;20058;-76
2020/12/11 08:52:52;;;;;;;12.82;6.10;;;2.70;99.90;;;;;;5114454;28;20477;-77
2020/12/11 08:55:18;;;;;;;11.63;5.82;;;2.70;99.90;;;;;;5114277;28;20047;-77
2020/12/11 08:57:49;;;;;;;12.60;6.32;;;;;;;;;;5114316;28;20456;-78
2020/12/11 09:00:15;;;;;;;9.45;4.80;;;2.80;99.90;;;;;;5113782;28;20040;-79
2020/12/11 09:02:41;;;;;;;8.38;4.57;;;2.80;99.90;;;;;;5114250;28;20104;-79
2020/12/11 09:05:06;;;;;;;16.23;9.20;;;2.80;99.90;;;;;;5113955;28;20405;-77
2020/12/11 09:07:32;;;;;;;11.68;5.15;;;2.80;99.90;;;;;;5112865;28;20122;-77
2020/12/11 09:09:58;;;;;;;9.52;5.32;;;2.90;99.90;;;;;;5112281;28;20443;-77
2020/12/11 09:12:23;;;;;;;12.68;6.32;;;2.90;99.90;;;;;;5113277;28;20035;-77
2020/12/11 09:14:50;;;;;;;7.78;4.70;;;2.90;99.90;;;;;;5114056;28;20036;-77
2020/12/11 09:17:15;;;;;;;10.55;5.22;;;2.90;99.90;;;;;;5112488;28;20036;-77
2020/12/11 09:19:41;;;;;;;13.57;7.18;;;2.90;99.90;;;;;;5113373;28;20050;-77
2020/12/11 09:22:07;;;;;;;13.75;6.20;;;2.90;99.90;;;;;;5113584;28;20089;-77
2020/12/11 09:24:32;;;;;;;12.77;4.18;;;3.00;99.90;;;;;;5114077;28;20094;-77
2020/12/11 09:26:58;;;;;;;19.08;9.70;;;3.00;99.90;;;;;;5112726;28;20495;-77
2020/12/11 09:29:30;;;;;;;15.75;6.85;;;3.10;99.90;;;;;;5112193;28;20040;-77
2020/12/11 09:31:58;;;;;;;16.55;8.23;;;3.10;99.90;;;;;;5112512;28;20039;-77
2020/12/11 09:34:24;;;;;;;14.73;6.30;;;3.10;99.90;;;;;;5113659;28;20500;-78
2020/12/11 09:36:50;;;;;;;8.23;2.50;;;3.10;99.90;;;;;;5112791;28;20074;-77
2020/12/11 09:39:16;;;;;;;16.02;8.23;;;3.20;99.90;;;;;;5111879;28;20080;-78
2020/12/11 09:41:49;;;;;;;13.68;7.05;;;3.20;99.90;;;;;;5113824;28;20040;-77
2020/12/11 09:44:39;;;;;;;5.20;2.60;;;3.20;99.90;;;;;;5112843;28;20036;-77
2020/12/11 09:52:49;;;;;;;20.27;9.88;;;3.20;99.90;;;;;;5113936;28;20389;-77
2020/12/11 09:55:15;;;;;;;6.60;3.17;;;3.20;99.90;;;;;;5112271;28;20036;-77
2020/12/11 09:57:41;;;;;;;15.38;8.05;;;3.30;99.90;;;;;;5112260;28;20511;-77
2020/12/11 10:00:07;;;;;;;15.50;6.57;;;3.30;99.90;;;;;;5111808;28;20032;-77
2020/12/11 10:02:47;;;;;;;11.82;5.72;;;3.30;99.90;;;;;;5113599;28;20111;-77
2020/12/11 10:05:13;;;;;;;23.88;10.00;;;3.30;99.90;;;;;;5113578;28;20549;-79
2020/12/11 10:07:39;;;;;;;22.38;10.70;;;;;;;;;;5113615;28;20039;-76
2020/12/11 10:10:04;;;;;;;7.65;4.22;;;3.30;99.90;;;;;;5113181;28;20032;-78
2020/12/11 10:12:30;;;;;;;18.58;8.52;;;3.30;99.90;;;;;;5113651;28;20097;-79
2020/12/11 10:15:05;;;;;;;8.63;5.38;;;;;;;;;;5113766;28;20067;-79
2020/12/11 10:17:31;;;;;;;17.42;7.97;;;3.40;99.90;;;;;;5113360;28;20070;-78
2020/12/11 10:19:58;;;;;;;11.82;6.47;;;;;;;;;;5113207;28;20059;-78
2020/12/11 10:22:24;;;;;;;12.73;5.93;;;;;;;;;;5112171;28;20138;-77
2020/12/11 10:24:50;;;;;;;16.88;7.32;;;3.40;99.90;;;;;;5113280;28;20070;-78
2020/12/11 10:27:15;;;;;;;10.98;4.90;;;3.40;99.90;;;;;;5112117;28;20040;-79
2020/12/11 10:29:41;;;;;;;15.38;5.70;;;3.50;99.90;;;;;;5112639;28;20040;-79
2020/12/11 10:32:07;;;;;;;9.43;5.00;;;;;;;;;;5112087;28;20489;-79
2020/12/11 10:34:35;;;;;;;10.45;5.03;;;3.50;99.90;;;;;;5116168;28;20082;-78
2020/12/11 10:37:02;;;;;;;10.75;5.32;;;;;;;;;;5116028;28;20057;-79
2020/12/11 10:39:27;;;;;;;15.00;7.15;;;3.50;99.90;;;;;;5116550;28;20039;-79
2020/12/11 10:41:53;;;;;;;19.15;8.60;;;3.50;99.90;;;;;;5115632;28;20085;-79
2020/12/11 10:44:20;;;;;;;8.73;3.38;;;;;;;;;;5117281;28;20039;-76
2020/12/11 10:46:48;;;;;;;8.45;2.95;;;3.50;99.90;;;;;;5115556;28;20463;-78
2020/12/11 10:49:14;;;;;;;15.45;6.18;;;3.60;99.90;;;;;;5114741;28;20039;-78
2020/12/11 10:51:40;;;;;;;7.18;3.03;;;3.50;99.90;;;;;;5116697;28;20477;-78
2020/12/11 10:54:06;;;;;;;19.90;8.75;;;3.60;99.90;;;;;;5116590;28;20035;-79
2020/12/11 10:56:32;;;;;;;13.80;7.53;;;3.80;99.90;;;;;;5116654;28;20040;-78
2020/12/11 10:58:57;;;;;;;21.55;11.32;;;3.60;99.90;;;;;;5116296;27;20041;-78
2020/12/11 11:01:23;;;;;;;16.23;7.47;;;3.60;99.90;;;;;;5115423;28;20039;-79
2020/12/11 11:03:49;;;;;;;9.80;4.38;;;;;;;;;;5115074;28;20130;-79
2020/12/11 11:11:24;;;;;;;22.98;10.80;;;3.70;99.90;;;;;;5116804;28;20043;-79
2020/12/11 11:14:15;;;;;;;7.13;3.47;;;3.80;99.90;;;;;;5116775;28;20039;-78
2020/12/11 11:17:02;;;;;;;15.82;6.50;;;3.80;99.90;;;;;;5115894;28;20031;-79
2020/12/11 11:19:37;;;;;;;20.58;9.65;;;4.10;99.90;;;;;;5115615;28;20400;-79
2020/12/11 11:22:22;;;;;;;21.52;9.55;;;4.50;99.90;;;;;;5116571;28;20491;-79
2020/12/11 11:25:13;;;;;;;19.77;10.52;;;5.00;99.90;;;;;;5114724;28;20036;-79
2020/12/11 11:27:42;;;;;;;19.42;8.18;;;5.00;99.90;;;;;;5115840;28;20043;-78
2020/12/11 11:30:08;;;;;;;17.13;8.10;;;5.20;99.90;;;;;;5115747;28;20489;-79
2020/12/11 11:32:35;;;;;;;2.60;1.45;;;5.20;99.90;;;;;;5114790;28;20042;-79
2020/12/11 11:35:00;;;;;;;15.35;8.02;;;5.50;99.90;;;;;;5116005;28;20036;-78
2020/12/11 11:37:27;;;;;;;16.80;7.93;;;6.20;99.90;;;;;;5114576;28;20035;-79
2020/12/11 11:39:52;;;;;;;12.23;5.72;;;6.20;99.90;;;;;;5115389;28;20084;-79
2020/12/11 11:42:18;;;;;;;18.70;8.80;;;5.70;99.90;;;;;;5114852;28;20040;-79
2020/12/11 11:44:57;;;;;;;16.80;8.90;;;6.30;99.90;;;;;;5114214;28;20046;-79
2020/12/11 11:47:24;;;;;;;17.58;8.35;;;6.30;99.90;;;;;;5114524;28;20489;-79
2020/12/11 11:52:37;;;;;;;9.85;3.88;;;6.70;99.90;;;;;;5110804;28;20043;-78
2020/12/11 11:55:04;;;;;;;15.32;7.53;;;5.90;99.90;;;;;;5111568;28;20040;-78
2020/12/11 11:57:30;;;;;;;18.45;9.52;;;5.50;99.90;;;;;;5110477;28;20051;-79
2020/12/11 11:59:57;;;;;;;11.40;5.57;;;;;;;;;;5111042;28;20047;-79
2020/12/11 12:02:23;;;;;;;8.88;4.55;;;;;;;;;;5112319;28;20086;-80
2020/12/11 12:04:48;;;;;;;9.73;5.13;;;4.90;99.90;;;;;;5114963;28;20116;-80
2020/12/11 12:07:14;;;;;;;19.27;8.40;;;4.80;99.90;;;;;;5114886;28;20103;-80
2020/12/11 12:09:40;;;;;;;15.05;7.53;;;4.80;99.90;;;;;;5110052;28;20104;-79
2020/12/11 12:12:05;;;;;;;18.45;9.40;;;4.80;99.90;;;;;;5110231;28;20126;-79
2020/12/11 12:14:31;;;;;;;12.43;5.95;;;4.80;99.90;;;;;;5109951;28;20039;-78
2020/12/11 12:17:01;;;;;;;7.38;3.72;;;4.90;99.90;;;;;;5110304;28;20071;-78
2020/12/11 12:19:33;;;;;;;13.48;6.75;;;4.90;99.90;;;;;;5109655;28;20031;-78
2020/12/11 12:27:29;;;;;;;17.10;8.43;;;4.80;99.90;;;;;;5111133;28;20050;-78
2020/12/11 12:29:55;;;;;;;9.68;5.22;;;4.60;99.90;;;;;;5110777;27;20059;-79
2020/12/11 12:32:24;;;;;;;8.85;3.90;;;4.60;99.90;;;;;;5111266;28;20149;-79
2020/12/11 12:34:57;;;;;;;20.13;9.93;;;4.60;99.90;;;;;;5111484;28;20104;-79
2020/12/11 12:37:32;;;;;;;13.68;6.90;;;4.50;99.90;;;;;;5110161;28;20031;-78
2020/12/11 12:43:00;;;;;;;12.02;4.82;;;4.60;99.90;;;;;;5111753;28;20425;-78
2020/12/11 12:45:26;;;;;;;19.80;9.60;;;4.60;99.90;;;;;;5109817;28;20062;-79
2020/12/11 12:47:52;;;;;;;15.90;7.95;;;4.60;99.90;;;;;;5111080;27;20485;-78
2020/12/11 12:50:18;;;;;;;19.15;8.75;;;4.50;99.90;;;;;;5109997;28;20058;-78
2020/12/11 12:52:44;;;;;;;14.05;7.38;;;4.60;99.90;;;;;;5110910;28;20043;-79
2020/12/11 12:55:09;;;;;;;13.85;6.15;;;4.50;99.90;;;;;;5109633;28;20082;-78
2020/12/11 12:57:45;;;;;;;19.58;8.35;;;4.60;99.90;;;;;;5110420;28;20139;-78
2020/12/11 13:00:35;;;;;;;15.65;7.90;;;4.70;99.90;;;;;;5110180;28;20081;-78
2020/12/11 13:03:26;;;;;;;11.30;4.90;;;4.70;99.90;;;;;;5110644;28;20408;-78
2020/12/11 13:05:47;;;;;;;19.45;9.25;;;4.60;99.90;;;;;;5110717;28;20055;-78
2020/12/11 13:08:13;;;;;;;24.63;10.55;;;;;;;;;;5110691;28;20039;-78
2020/12/11 13:10:39;;;;;;;15.00;7.18;;;4.50;99.90;;;;;;5109116;28;20143;-78
2020/12/11 13:13:08;;;;;;;17.77;7.85;;;;;;;;;;5110754;28;20505;-78
2020/12/11 13:15:35;;;;;;;20.85;8.50;;;4.50;99.90;;;;;;5109048;28;20040;-78
2020/12/11 13:18:02;;;;;;;12.50;4.63;;;4.60;99.90;;;;;;5109195;28;20500;-78
2020/12/11 13:20:32;;;;;;;20.88;9.77;;;4.60;99.90;;;;;;5108671;28;20044;-78
2020/12/11 13:26:10;;;;;;;11.73;5.30;;;4.50;99.90;;;;;;5110732;28;20128;-79
2020/12/11 13:28:30;;;;;;;10.27;6.00;;;4.70;99.90;;;;;;5110065;28;20047;-79
2020/12/11 13:30:56;;;;;;;11.40;6.13;;;;;;;;;;5109035;28;20049;-80